sensor_id;sensor_type;location;lat;lon;timestamp;temperature;humidity
15341;DHT22;7770;52.158;5.372;2022-07-18T00:00:08;17.80;99.90
15341;DHT22;7770;52.158;5.372;2022-07-18T00:02:55;17.70;99.90
15341;DHT22;7770;52.158;5.372;2022-07-18T00:05:41;17.70;99.90
15341;DHT22;7770;52.158;5.372;2022-07-18T00:08:27;17.80;99.90
15341;DHT22;7770;52.158;5.372;2022-07-18T00:11:13;17.80;99.90
15341;DHT22;7770;52.158;5.372;2022-07-18T00:13:59;17.70;99.90
15341;DHT22;7770;52.158;5.372;2022-07-18T00:16:45;17.70;99.90
15341;DHT22;7770;52.158;5.372;2022-07-18T00:19:31;17.60;99.90
15341;DHT22;7770;52.158;5.372;2022-07-18T00:22:18;17.50;99.90
15341;DHT22;7770;52.158;5.372;2022-07-18T00:25:04;17.50;99.90
15341;DHT22;7770;52.158;5.372;2022-07-18T00:27:51;17.40;99.90
15341;DHT22;7770;52.158;5.372;2022-07-18T00:30:38;17.30;99.90
15341;DHT22;7770;52.158;5.372;2022-07-18T00:33:25;17.30;99.90
15341;DHT22;7770;52.158;5.372;2022-07-18T00:36:11;17.20;99.90
15341;DHT22;7770;52.158;5.372;2022-07-18T00:38:58;17.10;99.90
15341;DHT22;7770;52.158;5.372;2022-07-18T00:41:48;17.10;99.90
15341;DHT22;7770;52.158;5.372;2022-07-18T00:44:34;17.10;99.90
15341;DHT22;7770;52.158;5.372;2022-07-18T00:47:20;17.00;99.90
15341;DHT22;7770;52.158;5.372;2022-07-18T00:50:07;17.00;99.90
15341;DHT22;7770;52.158;5.372;2022-07-18T00:52:54;17.00;99.90
15341;DHT22;7770;52.158;5.372;2022-07-18T00:55:42;17.00;99.90
15341;DHT22;7770;52.158;5.372;2022-07-18T00:58:30;16.90;99.90
15341;DHT22;7770;52.158;5.372;2022-07-18T01:01:16;16.90;99.90
15341;DHT22;7770;52.158;5.372;2022-07-18T01:04:22;16.90;99.90
15341;DHT22;7770;52.158;5.372;2022-07-18T01:07:09;16.80;99.90
15341;DHT22;7770;52.158;5.372;2022-07-18T01:09:55;16.70;99.90
15341;DHT22;7770;52.158;5.372;2022-07-18T01:12:41;16.70;99.90
15341;DHT22;7770;52.158;5.372;2022-07-18T01:15:27;16.60;99.90
15341;DHT22;7770;52.158;5.372;2022-07-18T01:18:13;16.50;99.90
15341;DHT22;7770;52.158;5.372;2022-07-18T01:20:59;16.50;99.90
15341;DHT22;7770;52.158;5.372;2022-07-18T01:23:45;16.60;99.90
15341;DHT22;7770;52.158;5.372;2022-07-18T01:26:32;16.60;99.90
15341;DHT22;7770;52.158;5.372;2022-07-18T01:29:19;16.60;99.90
15341;DHT22;7770;52.158;5.372;2022-07-18T01:32:06;16.50;99.90
15341;DHT22;7770;52.158;5.372;2022-07-18T01:34:53;16.50;99.90
15341;DHT22;7770;52.158;5.372;2022-07-18T01:37:39;16.40;99.90
15341;DHT22;7770;52.158;5.372;2022-07-18T01:40:26;16.40;99.90
15341;DHT22;7770;52.158;5.372;2022-07-18T01:43:12;16.40;99.90
15341;DHT22;7770;52.158;5.372;2022-07-18T01:45:58;16.40;99.90
15341;DHT22;7770;52.158;5.372;2022-07-18T01:48:44;16.30;99.90
15341;DHT22;7770;52.158;5.372;2022-07-18T01:51:31;16.30;99.90
15341;DHT22;7770;52.158;5.372;2022-07-18T01:54:20;16.20;99.90
15341;DHT22;7770;52.158;5.372;2022-07-18T01:57:07;16.30;99.90
15341;DHT22;7770;52.158;5.372;2022-07-18T01:59:54;16.30;99.90
15341;DHT22;7770;52.158;5.372;2022-07-18T02:02:40;16.20;99.90
15341;DHT22;7770;52.158;5.372;2022-07-18T02:05:26;16.20;99.90
15341;DHT22;7770;52.158;5.372;2022-07-18T02:08:12;16.00;99.90
15341;DHT22;7770;52.158;5.372;2022-07-18T02:10:58;16.00;99.90
15341;DHT22;7770;52.158;5.372;2022-07-18T02:13:44;15.80;99.90
15341;DHT22;7770;52.158;5.372;2022-07-18T02:16:31;15.80;99.90
15341;DHT22;7770;52.158;5.372;2022-07-18T02:19:17;15.90;99.90
15341;DHT22;7770;52.158;5.372;2022-07-18T02:22:03;16.00;99.90
15341;DHT22;7770;52.158;5.372;2022-07-18T02:24:50;16.00;99.90
15341;DHT22;7770;52.158;5.372;2022-07-18T02:27:37;16.00;99.90
15341;DHT22;7770;52.158;5.372;2022-07-18T02:30:23;16.00;99.90
15341;DHT22;7770;52.158;5.372;2022-07-18T02:33:09;16.00;99.90
15341;DHT22;7770;52.158;5.372;2022-07-18T02:35:56;16.10;99.90
15341;DHT22;7770;52.158;5.372;2022-07-18T02:38:42;16.10;99.90
15341;DHT22;7770;52.158;5.372;2022-07-18T02:41:28;16.10;99.90
15341;DHT22;7770;52.158;5.372;2022-07-18T02:44:14;16.00;99.90
15341;DHT22;7770;52.158;5.372;2022-07-18T02:47:00;16.00;99.90
15341;DHT22;7770;52.158;5.372;2022-07-18T02:49:46;16.00;99.90
15341;DHT22;7770;52.158;5.372;2022-07-18T02:52:32;16.00;99.90
15341;DHT22;7770;52.158;5.372;2022-07-18T02:55:18;15.90;99.90
15341;DHT22;7770;52.158;5.372;2022-07-18T02:58:04;15.90;99.90
15341;DHT22;7770;52.158;5.372;2022-07-18T03:00:50;15.90;99.90
15341;DHT22;7770;52.158;5.372;2022-07-18T03:03:36;15.90;99.90
15341;DHT22;7770;52.158;5.372;2022-07-18T03:06:22;16.00;99.90
15341;DHT22;7770;52.158;5.372;2022-07-18T03:09:08;16.00;99.90
15341;DHT22;7770;52.158;5.372;2022-07-18T03:11:55;16.10;99.90
15341;DHT22;7770;52.158;5.372;2022-07-18T03:14:42;16.10;99.90
15341;DHT22;7770;52.158;5.372;2022-07-18T03:17:28;16.20;99.90
15341;DHT22;7770;52.158;5.372;2022-07-18T03:20:14;16.30;99.90
15341;DHT22;7770;52.158;5.372;2022-07-18T03:23:04;16.30;99.90
15341;DHT22;7770;52.158;5.372;2022-07-18T03:25:51;16.20;99.90
15341;DHT22;7770;52.158;5.372;2022-07-18T03:28:37;16.00;99.90
15341;DHT22;7770;52.158;5.372;2022-07-18T03:31:23;16.00;99.90
15341;DHT22;7770;52.158;5.372;2022-07-18T03:34:10;16.00;99.90
15341;DHT22;7770;52.158;5.372;2022-07-18T03:36:56;16.00;99.90
15341;DHT22;7770;52.158;5.372;2022-07-18T03:39:42;16.00;99.90
15341;DHT22;7770;52.158;5.372;2022-07-18T03:42:28;15.90;99.90
15341;DHT22;7770;52.158;5.372;2022-07-18T03:45:14;15.90;99.90
15341;DHT22;7770;52.158;5.372;2022-07-18T03:48:00;16.00;99.90
15341;DHT22;7770;52.158;5.372;2022-07-18T03:50:46;15.90;99.90
15341;DHT22;7770;52.158;5.372;2022-07-18T03:53:32;15.90;99.90
15341;DHT22;7770;52.158;5.372;2022-07-18T03:56:19;15.90;99.90
15341;DHT22;7770;52.158;5.372;2022-07-18T03:59:05;15.90;99.90
15341;DHT22;7770;52.158;5.372;2022-07-18T04:01:51;15.90;99.90
15341;DHT22;7770;52.158;5.372;2022-07-18T04:04:37;15.90;99.90
15341;DHT22;7770;52.158;5.372;2022-07-18T04:07:23;15.90;99.90
15341;DHT22;7770;52.158;5.372;2022-07-18T04:10:10;16.00;99.90
15341;DHT22;7770;52.158;5.372;2022-07-18T04:12:56;15.90;99.90
15341;DHT22;7770;52.158;5.372;2022-07-18T04:15:42;15.90;99.90
15341;DHT22;7770;52.158;5.372;2022-07-18T04:18:29;15.90;99.90
15341;DHT22;7770;52.158;5.372;2022-07-18T04:21:15;15.90;99.90
15341;DHT22;7770;52.158;5.372;2022-07-18T04:24:01;15.90;99.90
15341;DHT22;7770;52.158;5.372;2022-07-18T04:26:47;15.90;99.90
15341;DHT22;7770;52.158;5.372;2022-07-18T04:29:33;15.90;99.90
15341;DHT22;7770;52.158;5.372;2022-07-18T04:32:21;15.90;99.90
15341;DHT22;7770;52.158;5.372;2022-07-18T04:35:08;16.00;99.90
15341;DHT22;7770;52.158;5.372;2022-07-18T04:37:54;16.00;99.90
15341;DHT22;7770;52.158;5.372;2022-07-18T04:40:40;16.10;99.90
15341;DHT22;7770;52.158;5.372;2022-07-18T04:43:27;16.10;99.90
15341;DHT22;7770;52.158;5.372;2022-07-18T04:46:13;16.20;99.90
15341;DHT22;7770;52.158;5.372;2022-07-18T04:48:58;16.30;99.90
15341;DHT22;7770;52.158;5.372;2022-07-18T04:51:44;16.30;99.90
15341;DHT22;7770;52.158;5.372;2022-07-18T04:54:30;16.30;99.90
15341;DHT22;7770;52.158;5.372;2022-07-18T04:57:17;16.50;99.90
15341;DHT22;7770;52.158;5.372;2022-07-18T05:00:09;16.50;99.90
15341;DHT22;7770;52.158;5.372;2022-07-18T05:02:57;16.70;99.90
15341;DHT22;7770;52.158;5.372;2022-07-18T05:05:44;16.80;99.90
15341;DHT22;7770;52.158;5.372;2022-07-18T05:08:30;17.00;99.90
15341;DHT22;7770;52.158;5.372;2022-07-18T05:11:16;17.10;99.90
15341;DHT22;7770;52.158;5.372;2022-07-18T05:14:02;17.00;99.90
15341;DHT22;7770;52.158;5.372;2022-07-18T05:16:49;17.10;99.90
15341;DHT22;7770;52.158;5.372;2022-07-18T05:19:35;17.00;99.90
15341;DHT22;7770;52.158;5.372;2022-07-18T05:22:22;17.10;99.90
15341;DHT22;7770;52.158;5.372;2022-07-18T05:25:09;17.20;99.90
15341;DHT22;7770;52.158;5.372;2022-07-18T05:27:55;17.20;99.90
15341;DHT22;7770;52.158;5.372;2022-07-18T05:30:41;17.40;99.90
15341;DHT22;7770;52.158;5.372;2022-07-18T05:33:27;18.00;99.90
15341;DHT22;7770;52.158;5.372;2022-07-18T05:36:13;18.90;99.90
15341;DHT22;7770;52.158;5.372;2022-07-18T05:39:00;20.00;99.90
15341;DHT22;7770;52.158;5.372;2022-07-18T05:41:47;20.90;99.90
15341;DHT22;7770;52.158;5.372;2022-07-18T05:44:33;21.60;99.90
15341;DHT22;7770;52.158;5.372;2022-07-18T05:47:19;22.60;97.90
15341;DHT22;7770;52.158;5.372;2022-07-18T05:50:05;22.30;97.70
15341;DHT22;7770;52.158;5.372;2022-07-18T05:52:52;22.40;97.60
15341;DHT22;7770;52.158;5.372;2022-07-18T05:55:38;22.40;97.30
15341;DHT22;7770;52.158;5.372;2022-07-18T05:58:24;22.50;97.00
15341;DHT22;7770;52.158;5.372;2022-07-18T06:01:10;23.40;96.30
15341;DHT22;7770;52.158;5.372;2022-07-18T06:03:56;22.50;96.70
15341;DHT22;7770;52.158;5.372;2022-07-18T06:06:42;21.90;97.40
15341;DHT22;7770;52.158;5.372;2022-07-18T06:09:29;21.20;98.60
15341;DHT22;7770;52.158;5.372;2022-07-18T06:12:16;21.20;98.70
15341;DHT22;7770;52.158;5.372;2022-07-18T06:15:02;20.80;99.30
15341;DHT22;7770;52.158;5.372;2022-07-18T06:17:49;20.50;99.50
15341;DHT22;7770;52.158;5.372;2022-07-18T06:20:35;20.50;99.60
15341;DHT22;7770;52.158;5.372;2022-07-18T06:23:21;20.30;99.90
15341;DHT22;7770;52.158;5.372;2022-07-18T06:26:07;20.10;99.90
15341;DHT22;7770;52.158;5.372;2022-07-18T06:28:54;20.20;99.90
15341;DHT22;7770;52.158;5.372;2022-07-18T06:31:40;20.30;99.90
15341;DHT22;7770;52.158;5.372;2022-07-18T06:34:26;20.40;99.70
15341;DHT22;7770;52.158;5.372;2022-07-18T06:37:12;20.40;99.60
15341;DHT22;7770;52.158;5.372;2022-07-18T06:39:58;20.50;99.20
15341;DHT22;7770;52.158;5.372;2022-07-18T06:42:44;20.80;99.10
15341;DHT22;7770;52.158;5.372;2022-07-18T06:45:30;21.30;98.40
15341;DHT22;7770;52.158;5.372;2022-07-18T06:48:16;21.40;98.20
15341;DHT22;7770;52.158;5.372;2022-07-18T06:51:04;21.90;98.40
15341;DHT22;7770;52.158;5.372;2022-07-18T06:53:51;22.70;97.20
15341;DHT22;7770;52.158;5.372;2022-07-18T06:56:37;22.90;97.10
15341;DHT22;7770;52.158;5.372;2022-07-18T06:59:23;23.30;96.50
15341;DHT22;7770;52.158;5.372;2022-07-18T07:02:09;23.90;96.30
15341;DHT22;7770;52.158;5.372;2022-07-18T07:04:55;24.20;95.80
15341;DHT22;7770;52.158;5.372;2022-07-18T07:07:42;24.10;96.00
15341;DHT22;7770;52.158;5.372;2022-07-18T07:10:28;23.90;96.30
15341;DHT22;7770;52.158;5.372;2022-07-18T07:13:14;23.70;96.50
15341;DHT22;7770;52.158;5.372;2022-07-18T07:16:00;23.40;97.00
15341;DHT22;7770;52.158;5.372;2022-07-18T07:18:47;23.40;96.90
15341;DHT22;7770;52.158;5.372;2022-07-18T07:21:32;23.30;97.20
15341;DHT22;7770;52.158;5.372;2022-07-18T07:24:18;24.10;96.40
15341;DHT22;7770;52.158;5.372;2022-07-18T07:27:04;24.70;95.90
15341;DHT22;7770;52.158;5.372;2022-07-18T07:29:50;24.80;95.70
15341;DHT22;7770;52.158;5.372;2022-07-18T07:32:38;24.80;95.90
15341;DHT22;7770;52.158;5.372;2022-07-18T07:35:27;25.50;95.50
15341;DHT22;7770;52.158;5.372;2022-07-18T07:38:14;26.70;94.50
15341;DHT22;7770;52.158;5.372;2022-07-18T07:41:04;28.50;93.40
15341;DHT22;7770;52.158;5.372;2022-07-18T07:43:49;29.60;92.30
15341;DHT22;7770;52.158;5.372;2022-07-18T07:46:35;29.60;91.70
15341;DHT22;7770;52.158;5.372;2022-07-18T07:49:21;31.10;91.00
15341;DHT22;7770;52.158;5.372;2022-07-18T07:52:08;32.50;90.00
15341;DHT22;7770;52.158;5.372;2022-07-18T07:54:54;32.80;87.30
15341;DHT22;7770;52.158;5.372;2022-07-18T07:57:40;33.50;88.00
15341;DHT22;7770;52.158;5.372;2022-07-18T08:00:27;33.10;87.90
15341;DHT22;7770;52.158;5.372;2022-07-18T08:03:16;34.50;85.90
15341;DHT22;7770;52.158;5.372;2022-07-18T08:06:02;34.00;84.40
15341;DHT22;7770;52.158;5.372;2022-07-18T08:08:47;34.40;85.20
15341;DHT22;7770;52.158;5.372;2022-07-18T08:11:34;34.70;83.50
15341;DHT22;7770;52.158;5.372;2022-07-18T08:14:20;32.70;84.60
15341;DHT22;7770;52.158;5.372;2022-07-18T08:17:06;33.40;86.20
15341;DHT22;7770;52.158;5.372;2022-07-18T08:19:52;36.10;82.20
15341;DHT22;7770;52.158;5.372;2022-07-18T08:25:46;37.20;81.10
15341;DHT22;7770;52.158;5.372;2022-07-18T08:28:32;36.60;81.50
15341;DHT22;7770;52.158;5.372;2022-07-18T08:31:19;36.80;80.90
15341;DHT22;7770;52.158;5.372;2022-07-18T08:34:05;39.10;79.40
15341;DHT22;7770;52.158;5.372;2022-07-18T08:36:51;40.50;77.00
15341;DHT22;7770;52.158;5.372;2022-07-18T08:39:37;39.60;77.60
15341;DHT22;7770;52.158;5.372;2022-07-18T08:42:26;39.40;77.10
15341;DHT22;7770;52.158;5.372;2022-07-18T08:45:12;39.40;78.10
15341;DHT22;7770;52.158;5.372;2022-07-18T08:47:58;40.50;76.40
15341;DHT22;7770;52.158;5.372;2022-07-18T08:50:45;40.80;74.90
15341;DHT22;7770;52.158;5.372;2022-07-18T08:53:33;41.60;74.50
15341;DHT22;7770;52.158;5.372;2022-07-18T08:56:21;43.50;74.50
15341;DHT22;7770;52.158;5.372;2022-07-18T08:59:07;45.40;72.40
15341;DHT22;7770;52.158;5.372;2022-07-18T09:01:53;47.20;68.70
15341;DHT22;7770;52.158;5.372;2022-07-18T09:04:42;47.40;67.80
15341;DHT22;7770;52.158;5.372;2022-07-18T09:07:31;44.60;67.90
15341;DHT22;7770;52.158;5.372;2022-07-18T09:10:20;42.40;69.90
15341;DHT22;7770;52.158;5.372;2022-07-18T09:13:06;39.10;72.30
15341;DHT22;7770;52.158;5.372;2022-07-18T09:16:01;38.40;74.60
15341;DHT22;7770;52.158;5.372;2022-07-18T09:18:49;37.20;73.50
15341;DHT22;7770;52.158;5.372;2022-07-18T09:21:36;36.10;75.10
15341;DHT22;7770;52.158;5.372;2022-07-18T09:24:22;34.90;77.30
15341;DHT22;7770;52.158;5.372;2022-07-18T09:27:23;34.30;78.90
15341;DHT22;7770;52.158;5.372;2022-07-18T09:30:23;32.90;80.10
15341;DHT22;7770;52.158;5.372;2022-07-18T09:33:18;31.30;81.70
15341;DHT22;7770;52.158;5.372;2022-07-18T09:36:06;31.30;83.20
15341;DHT22;7770;52.158;5.372;2022-07-18T09:38:52;30.50;83.80
15341;DHT22;7770;52.158;5.372;2022-07-18T09:41:38;31.10;83.80
15341;DHT22;7770;52.158;5.372;2022-07-18T09:44:24;32.10;83.90
15341;DHT22;7770;52.158;5.372;2022-07-18T09:47:10;31.30;83.20
15341;DHT22;7770;52.158;5.372;2022-07-18T09:49:56;30.40;85.20
15341;DHT22;7770;52.158;5.372;2022-07-18T09:52:42;30.20;85.60
15341;DHT22;7770;52.158;5.372;2022-07-18T09:55:28;29.90;86.40
15341;DHT22;7770;52.158;5.372;2022-07-18T09:58:18;31.60;85.40
15341;DHT22;7770;52.158;5.372;2022-07-18T10:01:06;35.00;79.80
15341;DHT22;7770;52.158;5.372;2022-07-18T10:03:53;37.00;77.10
15341;DHT22;7770;52.158;5.372;2022-07-18T10:06:40;38.50;74.70
15341;DHT22;7770;52.158;5.372;2022-07-18T10:09:28;38.90;74.20
15341;DHT22;7770;52.158;5.372;2022-07-18T10:12:14;39.40;72.80
15341;DHT22;7770;52.158;5.372;2022-07-18T10:15:01;40.50;72.10
15341;DHT22;7770;52.158;5.372;2022-07-18T10:17:47;39.60;71.50
15341;DHT22;7770;52.158;5.372;2022-07-18T10:20:39;41.60;70.60
15341;DHT22;7770;52.158;5.372;2022-07-18T10:26:27;42.70;70.70
15341;DHT22;7770;52.158;5.372;2022-07-18T10:29:16;43.50;69.60
15341;DHT22;7770;52.158;5.372;2022-07-18T10:32:04;42.50;70.00
15341;DHT22;7770;52.158;5.372;2022-07-18T10:34:52;43.50;69.80
15341;DHT22;7770;52.158;5.372;2022-07-18T10:37:38;46.90;68.40
15341;DHT22;7770;52.158;5.372;2022-07-18T10:40:27;44.60;65.90
15341;DHT22;7770;52.158;5.372;2022-07-18T10:46:16;43.10;66.90
15341;DHT22;7770;52.158;5.372;2022-07-18T10:49:02;42.70;67.20
15341;DHT22;7770;52.158;5.372;2022-07-18T10:51:48;42.70;68.30
15341;DHT22;7770;52.158;5.372;2022-07-18T10:54:34;43.00;67.10
15341;DHT22;7770;52.158;5.372;2022-07-18T10:57:20;42.80;65.80
15341;DHT22;7770;52.158;5.372;2022-07-18T11:03:11;42.30;65.60
15341;DHT22;7770;52.158;5.372;2022-07-18T11:05:59;44.20;65.70
15341;DHT22;7770;52.158;5.372;2022-07-18T11:08:45;42.80;66.50
15341;DHT22;7770;52.158;5.372;2022-07-18T11:11:31;42.50;66.80
15341;DHT22;7770;52.158;5.372;2022-07-18T11:18:00;42.70;66.40
15341;DHT22;7770;52.158;5.372;2022-07-18T11:20:48;43.20;66.70
15341;DHT22;7770;52.158;5.372;2022-07-18T11:23:41;42.40;66.90
15341;DHT22;7770;52.158;5.372;2022-07-18T11:26:29;41.60;68.20
15341;DHT22;7770;52.158;5.372;2022-07-18T11:29:17;42.40;65.50
15341;DHT22;7770;52.158;5.372;2022-07-18T11:32:06;44.60;65.00
15341;DHT22;7770;52.158;5.372;2022-07-18T11:34:52;42.50;66.70
15341;DHT22;7770;52.158;5.372;2022-07-18T11:37:38;42.50;66.10
15341;DHT22;7770;52.158;5.372;2022-07-18T11:40:24;43.60;66.00
15341;DHT22;7770;52.158;5.372;2022-07-18T11:43:10;42.10;67.00
15341;DHT22;7770;52.158;5.372;2022-07-18T11:46:08;41.60;66.40
15341;DHT22;7770;52.158;5.372;2022-07-18T11:49:01;42.40;67.20
15341;DHT22;7770;52.158;5.372;2022-07-18T11:51:49;40.60;66.50
15341;DHT22;7770;52.158;5.372;2022-07-18T11:54:35;42.50;67.40
15341;DHT22;7770;52.158;5.372;2022-07-18T11:57:28;43.30;66.80
15341;DHT22;7770;52.158;5.372;2022-07-18T12:00:18;44.80;65.90
15341;DHT22;7770;52.158;5.372;2022-07-18T12:03:15;44.80;65.90
15341;DHT22;7770;52.158;5.372;2022-07-18T12:06:35;45.30;65.40
15341;DHT22;7770;52.158;5.372;2022-07-18T12:09:27;44.70;65.40
15341;DHT22;7770;52.158;5.372;2022-07-18T12:12:15;44.00;64.90
15341;DHT22;7770;52.158;5.372;2022-07-18T12:15:02;44.80;63.20
15341;DHT22;7770;52.158;5.372;2022-07-18T12:17:49;45.40;62.10
15341;DHT22;7770;52.158;5.372;2022-07-18T12:20:37;43.80;61.90
15341;DHT22;7770;52.158;5.372;2022-07-18T12:23:28;40.80;65.00
15341;DHT22;7770;52.158;5.372;2022-07-18T12:26:30;39.30;66.40
15341;DHT22;7770;52.158;5.372;2022-07-18T12:29:20;39.20;65.40
15341;DHT22;7770;52.158;5.372;2022-07-18T12:32:14;39.40;67.00
15341;DHT22;7770;52.158;5.372;2022-07-18T12:35:06;39.00;65.10
15341;DHT22;7770;52.158;5.372;2022-07-18T12:38:08;37.90;65.70
15341;DHT22;7770;52.158;5.372;2022-07-18T12:40:58;38.10;67.30
15341;DHT22;7770;52.158;5.372;2022-07-18T12:43:46;37.80;66.60
15341;DHT22;7770;52.158;5.372;2022-07-18T12:46:32;37.50;68.50
15341;DHT22;7770;52.158;5.372;2022-07-18T12:49:18;37.30;66.30
15341;DHT22;7770;52.158;5.372;2022-07-18T12:52:04;36.00;68.10
15341;DHT22;7770;52.158;5.372;2022-07-18T12:54:51;35.00;68.40
15341;DHT22;7770;52.158;5.372;2022-07-18T12:57:37;35.30;68.60
15341;DHT22;7770;52.158;5.372;2022-07-18T13:00:23;35.10;69.00
15341;DHT22;7770;52.158;5.372;2022-07-18T13:03:09;35.20;69.20
15341;DHT22;7770;52.158;5.372;2022-07-18T13:05:55;35.50;68.20
15341;DHT22;7770;52.158;5.372;2022-07-18T13:08:41;35.60;67.00
15341;DHT22;7770;52.158;5.372;2022-07-18T13:11:27;35.60;68.70
15341;DHT22;7770;52.158;5.372;2022-07-18T13:14:17;35.80;68.60
15341;DHT22;7770;52.158;5.372;2022-07-18T13:17:03;35.40;69.30
15341;DHT22;7770;52.158;5.372;2022-07-18T13:19:49;34.90;70.80
15341;DHT22;7770;52.158;5.372;2022-07-18T13:22:35;34.60;71.30
15341;DHT22;7770;52.158;5.372;2022-07-18T13:25:24;33.60;72.00
15341;DHT22;7770;52.158;5.372;2022-07-18T13:28:10;33.90;73.10
15341;DHT22;7770;52.158;5.372;2022-07-18T13:30:57;34.40;72.40
15341;DHT22;7770;52.158;5.372;2022-07-18T13:33:43;34.50;73.10
15341;DHT22;7770;52.158;5.372;2022-07-18T13:36:29;34.10;72.00
15341;DHT22;7770;52.158;5.372;2022-07-18T13:39:18;34.20;72.90
15341;DHT22;7770;52.158;5.372;2022-07-18T13:42:05;33.20;73.90
15341;DHT22;7770;52.158;5.372;2022-07-18T13:44:51;33.10;73.90
15341;DHT22;7770;52.158;5.372;2022-07-18T13:47:37;32.80;74.20
15341;DHT22;7770;52.158;5.372;2022-07-18T13:50:24;33.10;74.20
15341;DHT22;7770;52.158;5.372;2022-07-18T13:53:10;33.60;73.20
15341;DHT22;7770;52.158;5.372;2022-07-18T13:55:56;33.70;73.20
15341;DHT22;7770;52.158;5.372;2022-07-18T13:58:42;33.50;73.20
15341;DHT22;7770;52.158;5.372;2022-07-18T14:01:28;33.20;73.70
15341;DHT22;7770;52.158;5.372;2022-07-18T14:04:14;33.20;72.60
15341;DHT22;7770;52.158;5.372;2022-07-18T14:07:01;33.50;73.00
15341;DHT22;7770;52.158;5.372;2022-07-18T14:09:47;33.80;73.20
15341;DHT22;7770;52.158;5.372;2022-07-18T14:12:33;33.70;73.80
15341;DHT22;7770;52.158;5.372;2022-07-18T14:15:19;33.60;72.70
15341;DHT22;7770;52.158;5.372;2022-07-18T14:18:05;33.60;72.80
15341;DHT22;7770;52.158;5.372;2022-07-18T14:20:52;33.70;73.30
15341;DHT22;7770;52.158;5.372;2022-07-18T14:23:38;33.70;72.30
15341;DHT22;7770;52.158;5.372;2022-07-18T14:26:24;33.70;74.00
15341;DHT22;7770;52.158;5.372;2022-07-18T14:29:11;33.60;72.30
15341;DHT22;7770;52.158;5.372;2022-07-18T14:31:57;33.40;72.60
15341;DHT22;7770;52.158;5.372;2022-07-18T14:34:43;33.10;72.10
15341;DHT22;7770;52.158;5.372;2022-07-18T14:37:29;32.80;73.00
15341;DHT22;7770;52.158;5.372;2022-07-18T14:40:16;32.60;73.40
15341;DHT22;7770;52.158;5.372;2022-07-18T14:43:02;32.70;73.10
15341;DHT22;7770;52.158;5.372;2022-07-18T14:45:48;32.90;73.70
15341;DHT22;7770;52.158;5.372;2022-07-18T14:48:34;33.00;74.80
15341;DHT22;7770;52.158;5.372;2022-07-18T14:51:20;33.10;74.00
15341;DHT22;7770;52.158;5.372;2022-07-18T14:54:07;33.20;74.00
15341;DHT22;7770;52.158;5.372;2022-07-18T14:56:55;33.30;73.00
15341;DHT22;7770;52.158;5.372;2022-07-18T14:59:42;33.30;72.70
15341;DHT22;7770;52.158;5.372;2022-07-18T15:02:28;33.10;73.20
15341;DHT22;7770;52.158;5.372;2022-07-18T15:05:14;32.90;74.80
15341;DHT22;7770;52.158;5.372;2022-07-18T15:08:00;33.00;74.10
15341;DHT22;7770;52.158;5.372;2022-07-18T15:10:46;33.00;74.10
15341;DHT22;7770;52.158;5.372;2022-07-18T15:13:32;32.90;74.50
15341;DHT22;7770;52.158;5.372;2022-07-18T15:16:18;33.00;74.30
15341;DHT22;7770;52.158;5.372;2022-07-18T15:19:04;32.90;73.50
15341;DHT22;7770;52.158;5.372;2022-07-18T15:21:50;32.80;73.50
15341;DHT22;7770;52.158;5.372;2022-07-18T15:24:36;32.80;73.30
15341;DHT22;7770;52.158;5.372;2022-07-18T15:27:22;32.90;73.60
15341;DHT22;7770;52.158;5.372;2022-07-18T15:30:09;32.80;74.40
15341;DHT22;7770;52.158;5.372;2022-07-18T15:32:55;32.60;73.00
15341;DHT22;7770;52.158;5.372;2022-07-18T15:35:41;32.50;74.10
15341;DHT22;7770;52.158;5.372;2022-07-18T15:38:28;32.40;74.60
15341;DHT22;7770;52.158;5.372;2022-07-18T15:41:14;32.50;74.00
15341;DHT22;7770;52.158;5.372;2022-07-18T15:44:09;32.40;73.60
15341;DHT22;7770;52.158;5.372;2022-07-18T15:46:55;32.30;73.00
15341;DHT22;7770;52.158;5.372;2022-07-18T15:49:41;32.20;73.90
15341;DHT22;7770;52.158;5.372;2022-07-18T15:52:27;32.20;73.60
15341;DHT22;7770;52.158;5.372;2022-07-18T15:55:13;32.10;73.00
15341;DHT22;7770;52.158;5.372;2022-07-18T15:58:00;32.10;72.80
15341;DHT22;7770;52.158;5.372;2022-07-18T16:00:46;32.10;72.80
15341;DHT22;7770;52.158;5.372;2022-07-18T16:03:32;32.10;72.40
15341;DHT22;7770;52.158;5.372;2022-07-18T16:06:18;32.00;73.10
15341;DHT22;7770;52.158;5.372;2022-07-18T16:09:04;31.90;72.60
15341;DHT22;7770;52.158;5.372;2022-07-18T16:11:50;31.90;73.10
15341;DHT22;7770;52.158;5.372;2022-07-18T16:14:36;32.00;71.40
15341;DHT22;7770;52.158;5.372;2022-07-18T16:17:22;32.00;72.30
15341;DHT22;7770;52.158;5.372;2022-07-18T16:20:09;32.00;72.20
15341;DHT22;7770;52.158;5.372;2022-07-18T16:22:55;32.00;71.90
15341;DHT22;7770;52.158;5.372;2022-07-18T16:25:41;31.90;71.60
15341;DHT22;7770;52.158;5.372;2022-07-18T16:28:28;31.90;72.40
15341;DHT22;7770;52.158;5.372;2022-07-18T16:31:14;31.80;72.20
15341;DHT22;7770;52.158;5.372;2022-07-18T16:34:01;31.70;72.90
15341;DHT22;7770;52.158;5.372;2022-07-18T16:36:47;31.70;73.30
15341;DHT22;7770;52.158;5.372;2022-07-18T16:39:33;31.70;72.00
15341;DHT22;7770;52.158;5.372;2022-07-18T16:42:19;31.60;72.10
15341;DHT22;7770;52.158;5.372;2022-07-18T16:45:06;31.50;72.70
15341;DHT22;7770;52.158;5.372;2022-07-18T16:47:54;31.50;72.80
15341;DHT22;7770;52.158;5.372;2022-07-18T16:50:41;31.40;72.50
15341;DHT22;7770;52.158;5.372;2022-07-18T16:53:28;31.30;72.90
15341;DHT22;7770;52.158;5.372;2022-07-18T16:56:14;31.30;73.40
15341;DHT22;7770;52.158;5.372;2022-07-18T16:59:01;31.30;74.40
15341;DHT22;7770;52.158;5.372;2022-07-18T17:01:48;31.30;74.20
15341;DHT22;7770;52.158;5.372;2022-07-18T17:04:34;31.20;74.40
15341;DHT22;7770;52.158;5.372;2022-07-18T17:07:21;31.20;75.20
15341;DHT22;7770;52.158;5.372;2022-07-18T17:10:08;31.20;75.50
15341;DHT22;7770;52.158;5.372;2022-07-18T17:12:55;31.10;75.60
15341;DHT22;7770;52.158;5.372;2022-07-18T17:15:41;31.00;75.20
15341;DHT22;7770;52.158;5.372;2022-07-18T17:18:30;31.00;75.70
15341;DHT22;7770;52.158;5.372;2022-07-18T17:21:17;31.00;75.90
15341;DHT22;7770;52.158;5.372;2022-07-18T17:24:03;30.90;75.40
15341;DHT22;7770;52.158;5.372;2022-07-18T17:26:51;30.90;75.30
15341;DHT22;7770;52.158;5.372;2022-07-18T17:29:37;30.90;75.60
15341;DHT22;7770;52.158;5.372;2022-07-18T17:32:24;30.80;75.70
15341;DHT22;7770;52.158;5.372;2022-07-18T17:35:11;30.80;76.30
15341;DHT22;7770;52.158;5.372;2022-07-18T17:38:00;30.80;75.50
15341;DHT22;7770;52.158;5.372;2022-07-18T17:40:47;30.70;75.40
15341;DHT22;7770;52.158;5.372;2022-07-18T17:43:34;30.70;77.10
15341;DHT22;7770;52.158;5.372;2022-07-18T17:46:21;30.60;76.90
15341;DHT22;7770;52.158;5.372;2022-07-18T17:49:11;30.60;76.30
15341;DHT22;7770;52.158;5.372;2022-07-18T17:51:58;30.50;77.10
15341;DHT22;7770;52.158;5.372;2022-07-18T17:54:44;30.50;76.20
15341;DHT22;7770;52.158;5.372;2022-07-18T17:57:31;30.30;76.60
15341;DHT22;7770;52.158;5.372;2022-07-18T18:00:17;30.20;77.40
15341;DHT22;7770;52.158;5.372;2022-07-18T18:03:03;30.30;78.00
15341;DHT22;7770;52.158;5.372;2022-07-18T18:05:49;30.20;78.50